Cape Lambert — V7TC9 — position and weather

sailwx.info

Track history (hours):
 
Tides and Currents Weather Stations Pressure Air Temp Water Temp Dewpoint Dewpoint Depression Visibility Wind Speed Wind Dir Waves Ship Positions

Cape Lambert

Last reported at 2015-Sep-03 09:33 UTC. Time now 2015-Sep-03 15:12 UTC.
Position N 04°10' E 099°36'.

Length 290 m; draft 9.6 m.

Type: Cargo ship. MMSI: 538003781.

Date/timePositionNaut miles runAvg speedWind from/ knotsBaromVisibWave heightAir tempDewpointWater temp
2015-Sep-03 09:33N 04°10' E 099°36'10 9.6
2015-Sep-03 08:33N 04°04' E 099°43'11 9.5
2015-Sep-03 07:27N 03°57' E 099°51'6811.5
2015-Sep-03 01:32N 03°10' E 100°41'8 7.7
2015-Sep-03 00:33N 03°05' E 100°46'18 9.1
2015-Sep-02 22:33N 02°51' E 100°58'1010.2
2015-Sep-02 21:34N 02°46' E 101°07'2412.1
2015-Sep-02 19:33N 02°35' E 101°28'15610.4
2015-Sep-02 04:33N 01°11' E 103°40'9 9.4
2015-Sep-02 03:33N 01°11' E 103°49'9 8.8
2015-Sep-02 02:33N 01°15' E 103°57'2 1.9
2015-Sep-02 01:32N 01°17' E 103°58'0 0.1
2015-Sep-02 00:32N 01°17' E 103°58'0 0.0
2015-Sep-01 23:32N 01°17' E 103°58'0 0.1
2015-Sep-01 22:32N 01°17' E 103°58'0 0.0
2015-Sep-01 21:32N 01°17' E 103°58'0 0.0
2015-Sep-01 20:29N 01°17' E 103°58'0 0.1
2015-Sep-01 19:23N 01°17' E 103°58'0 0.1
2015-Sep-01 18:29N 01°17' E 103°58'0 0.1
2015-Sep-01 17:29N 01°17' E 103°58'0 0.1
2015-Sep-01 16:32N 01°17' E 103°58'0 0.0
2015-Sep-01 15:32N 01°16' E 103°58'0 0.0
2015-Sep-01 14:32N 01°17' E 103°58'0 0.1
2015-Sep-01 13:23N 01°17' E 103°58'0 0.1
2015-Sep-01 12:29N 01°17' E 103°58'0 0.1
2015-Sep-01 11:29N 01°17' E 103°58'0 0.0
2015-Sep-01 10:29N 01°17' E 103°58'0 0.1
2015-Sep-01 09:17N 01°17' E 103°58'0 0.1
2015-Sep-01 08:29N 01°17' E 103°58'0 0.1
2015-Sep-01 07:29N 01°17' E 103°58'0 0.1
2015-Sep-01 06:32N 01°17' E 103°58'0 0.2
2015-Sep-01 05:23N 01°17' E 103°58'0 0.0
2015-Sep-01 04:20N 01°17' E 103°58'1 1.5
2015-Sep-01 03:34N 01°16' E 103°59'6 5.5
2015-Sep-01 02:33N 01°16' E 104°04'10 9.5
2015-Sep-01 01:33N 01°18' E 104°14'  
Track history (hours):
 
Tides and Currents Weather Stations Pressure Air Temp Water Temp Dewpoint Dewpoint Depression Visibility Wind Speed Wind Dir Waves Ship Positions

Cape Lambert

Last reported at 2015-Sep-03 09:33 UTC. Time now 2015-Sep-03 15:12 UTC.
Position N 04°10' E 099°36'.

Length 290 m; draft 9.6 m.

Type: Cargo ship. MMSI: 538003781.

Date/timePositionNaut miles runAvg speedWind from/ knotsBaromVisibWave heightAir tempDewpointWater temp
2015-Sep-03 09:33N 04°10' E 099°36'10 9.6
2015-Sep-03 08:33N 04°04' E 099°43'11 9.5
2015-Sep-03 07:27N 03°57' E 099°51'6811.5
2015-Sep-03 01:32N 03°10' E 100°41'8 7.7
2015-Sep-03 00:33N 03°05' E 100°46'18 9.1
2015-Sep-02 22:33N 02°51' E 100°58'1010.2
2015-Sep-02 21:34N 02°46' E 101°07'2412.1
2015-Sep-02 19:33N 02°35' E 101°28'15610.4
2015-Sep-02 04:33N 01°11' E 103°40'9 9.4
2015-Sep-02 03:33N 01°11' E 103°49'9 8.8
2015-Sep-02 02:33N 01°15' E 103°57'2 1.9
2015-Sep-02 01:32N 01°17' E 103°58'0 0.1
2015-Sep-02 00:32N 01°17' E 103°58'0 0.0
2015-Sep-01 23:32N 01°17' E 103°58'0 0.1
2015-Sep-01 22:32N 01°17' E 103°58'0 0.0
2015-Sep-01 21:32N 01°17' E 103°58'0 0.0
2015-Sep-01 20:29N 01°17' E 103°58'0 0.1
2015-Sep-01 19:23N 01°17' E 103°58'0 0.1
2015-Sep-01 18:29N 01°17' E 103°58'0 0.1
2015-Sep-01 17:29N 01°17' E 103°58'0 0.1
2015-Sep-01 16:32N 01°17' E 103°58'0 0.0
2015-Sep-01 15:32N 01°16' E 103°58'0 0.0
2015-Sep-01 14:32N 01°17' E 103°58'0 0.1
2015-Sep-01 13:23N 01°17' E 103°58'0 0.1
2015-Sep-01 12:29N 01°17' E 103°58'0 0.1
2015-Sep-01 11:29N 01°17' E 103°58'0 0.0
2015-Sep-01 10:29N 01°17' E 103°58'0 0.1
2015-Sep-01 09:17N 01°17' E 103°58'0 0.1
2015-Sep-01 08:29N 01°17' E 103°58'0 0.1
2015-Sep-01 07:29N 01°17' E 103°58'0 0.1
2015-Sep-01 06:32N 01°17' E 103°58'0 0.2
2015-Sep-01 05:23N 01°17' E 103°58'0 0.0
2015-Sep-01 04:20N 01°17' E 103°58'1 1.5
2015-Sep-01 03:34N 01°16' E 103°59'6 5.5
2015-Sep-01 02:33N 01°16' E 104°04'10 9.5
2015-Sep-01 01:33N 01°18' E 104°14'  

Dump ship's entire track history